sensor_id;sensor_type;location;lat;lon;timestamp;temperature;humidity
2314;DHT22;42279;51.388;7.000;2023-08-21T02:24:09;19.40;99.90
2314;DHT22;42279;51.388;7.000;2023-08-21T02:26:35;19.20;99.90
2314;DHT22;42279;51.388;7.000;2023-08-21T02:29:00;19.00;99.90
2314;DHT22;42279;51.388;7.000;2023-08-21T02:31:26;18.90;99.90
2314;DHT22;42279;51.388;7.000;2023-08-21T07:46:06;28.40;99.90
2314;DHT22;42279;51.388;7.000;2023-08-21T07:48:32;28.30;99.90
2314;DHT22;42279;51.388;7.000;2023-08-21T07:50:59;28.90;99.90
2314;DHT22;42279;51.388;7.000;2023-08-21T07:53:25;29.80;99.90
2314;DHT22;42279;51.388;7.000;2023-08-21T07:55:51;30.10;99.90
2314;DHT22;42279;51.388;7.000;2023-08-21T07:58:16;30.10;99.90
2314;DHT22;42279;51.388;7.000;2023-08-21T08:00:42;30.30;99.90
2314;DHT22;42279;51.388;7.000;2023-08-21T08:03:08;30.40;99.90
2314;DHT22;42279;51.388;7.000;2023-08-21T08:05:34;30.90;99.90
2314;DHT22;42279;51.388;7.000;2023-08-21T08:08:00;31.80;99.90
2314;DHT22;42279;51.388;7.000;2023-08-21T08:10:26;32.50;99.90
2314;DHT22;42279;51.388;7.000;2023-08-21T08:12:51;32.00;99.90
2314;DHT22;42279;51.388;7.000;2023-08-21T08:15:18;31.80;99.90
2314;DHT22;42279;51.388;7.000;2023-08-21T08:17:44;31.60;99.90
2314;DHT22;42279;51.388;7.000;2023-08-21T08:20:17;31.80;99.90
2314;DHT22;42279;51.388;7.000;2023-08-21T08:22:43;32.30;99.80
2314;DHT22;42279;51.388;7.000;2023-08-21T08:25:08;32.70;98.60
2314;DHT22;42279;51.388;7.000;2023-08-21T08:27:34;32.80;97.20
2314;DHT22;42279;51.388;7.000;2023-08-21T08:29:59;32.40;97.40
2314;DHT22;42279;51.388;7.000;2023-08-21T08:32:26;33.00;96.40
2314;DHT22;42279;51.388;7.000;2023-08-21T08:34:52;33.30;95.90
2314;DHT22;42279;51.388;7.000;2023-08-21T08:37:18;32.90;95.20
2314;DHT22;42279;51.388;7.000;2023-08-21T08:39:46;31.60;96.60
2314;DHT22;42279;51.388;7.000;2023-08-21T08:42:14;31.10;97.60
2314;DHT22;42279;51.388;7.000;2023-08-21T08:44:39;32.10;96.80
2314;DHT22;42279;51.388;7.000;2023-08-21T08:47:07;32.90;95.40
2314;DHT22;42279;51.388;7.000;2023-08-21T08:49:33;33.00;94.80
2314;DHT22;42279;51.388;7.000;2023-08-21T08:52:00;33.50;94.00
2314;DHT22;42279;51.388;7.000;2023-08-21T08:54:27;32.00;93.90
2314;DHT22;42279;51.388;7.000;2023-08-21T08:56:53;31.40;95.20
2314;DHT22;42279;51.388;7.000;2023-08-21T08:59:19;32.10;94.70
2314;DHT22;42279;51.388;7.000;2023-08-21T09:01:45;33.00;94.00
2314;DHT22;42279;51.388;7.000;2023-08-21T09:04:11;33.30;93.30
2314;DHT22;42279;51.388;7.000;2023-08-21T09:06:37;34.10;92.40
2314;DHT22;42279;51.388;7.000;2023-08-21T09:09:03;35.10;91.10
2314;DHT22;42279;51.388;7.000;2023-08-21T09:11:29;35.80;90.20
2314;DHT22;42279;51.388;7.000;2023-08-21T09:13:55;36.10;86.00
2314;DHT22;42279;51.388;7.000;2023-08-21T09:16:24;36.20;86.40
2314;DHT22;42279;51.388;7.000;2023-08-21T09:18:52;36.80;84.80
2314;DHT22;42279;51.388;7.000;2023-08-21T09:21:20;36.40;82.10
2314;DHT22;42279;51.388;7.000;2023-08-21T09:23:46;36.90;81.70
2314;DHT22;42279;51.388;7.000;2023-08-21T09:26:22;37.20;79.80
2314;DHT22;42279;51.388;7.000;2023-08-21T09:28:49;35.10;79.70
2314;DHT22;42279;51.388;7.000;2023-08-21T09:31:16;34.80;83.10
2314;DHT22;42279;51.388;7.000;2023-08-21T09:33:43;33.40;83.10
2314;DHT22;42279;51.388;7.000;2023-08-21T09:36:09;34.40;82.30
2314;DHT22;42279;51.388;7.000;2023-08-21T09:38:38;35.30;81.20
2314;DHT22;42279;51.388;7.000;2023-08-21T09:41:05;34.90;80.20
2314;DHT22;42279;51.388;7.000;2023-08-21T09:43:31;34.50;82.30
2314;DHT22;42279;51.388;7.000;2023-08-21T09:45:56;34.90;81.00
2314;DHT22;42279;51.388;7.000;2023-08-21T09:48:23;35.00;80.50
2314;DHT22;42279;51.388;7.000;2023-08-21T09:50:50;35.40;79.40
2314;DHT22;42279;51.388;7.000;2023-08-21T09:53:16;35.90;78.70
2314;DHT22;42279;51.388;7.000;2023-08-21T09:55:42;36.70;77.70
2314;DHT22;42279;51.388;7.000;2023-08-21T09:58:08;36.70;78.30
2314;DHT22;42279;51.388;7.000;2023-08-21T10:00:36;37.00;75.50
2314;DHT22;42279;51.388;7.000;2023-08-21T10:03:07;36.70;76.10
2314;DHT22;42279;51.388;7.000;2023-08-21T10:05:37;37.30;76.60
2314;DHT22;42279;51.388;7.000;2023-08-21T10:08:04;37.20;74.90
2314;DHT22;42279;51.388;7.000;2023-08-21T10:10:39;37.70;74.50
2314;DHT22;42279;51.388;7.000;2023-08-21T10:13:05;38.00;73.30
2314;DHT22;42279;51.388;7.000;2023-08-21T10:15:33;38.60;72.70
2314;DHT22;42279;51.388;7.000;2023-08-21T10:20:47;37.50;72.50
2314;DHT22;42279;51.388;7.000;2023-08-21T10:23:24;37.40;72.50
2314;DHT22;42279;51.388;7.000;2023-08-21T10:25:56;37.60;72.70
2314;DHT22;42279;51.388;7.000;2023-08-21T10:28:22;38.10;71.40
2314;DHT22;42279;51.388;7.000;2023-08-21T10:30:49;38.30;71.30
2314;DHT22;42279;51.388;7.000;2023-08-21T10:33:14;38.30;71.30
2314;DHT22;42279;51.388;7.000;2023-08-21T10:35:40;37.00;71.60
2314;DHT22;42279;51.388;7.000;2023-08-21T10:38:15;36.50;73.20
2314;DHT22;42279;51.388;7.000;2023-08-21T10:41:07;36.20;72.90
2314;DHT22;42279;51.388;7.000;2023-08-21T10:43:45;35.70;75.20
2314;DHT22;42279;51.388;7.000;2023-08-21T10:46:12;36.20;74.90
2314;DHT22;42279;51.388;7.000;2023-08-21T10:48:39;35.30;76.20
2314;DHT22;42279;51.388;7.000;2023-08-21T10:51:07;35.30;76.70
2314;DHT22;42279;51.388;7.000;2023-08-21T10:53:33;35.90;76.80
2314;DHT22;42279;51.388;7.000;2023-08-21T10:56:03;35.60;76.20
2314;DHT22;42279;51.388;7.000;2023-08-21T10:58:43;36.00;75.70
2314;DHT22;42279;51.388;7.000;2023-08-21T11:01:15;35.90;75.90
2314;DHT22;42279;51.388;7.000;2023-08-21T11:03:46;35.90;77.30
2314;DHT22;42279;51.388;7.000;2023-08-21T11:06:11;36.20;76.50
2314;DHT22;42279;51.388;7.000;2023-08-21T11:08:37;36.70;77.30
2314;DHT22;42279;51.388;7.000;2023-08-21T11:23:43;37.60;67.90
2314;DHT22;42279;51.388;7.000;2023-08-21T11:26:12;37.60;67.40
2314;DHT22;42279;51.388;7.000;2023-08-21T11:28:38;37.80;68.70
2314;DHT22;42279;51.388;7.000;2023-08-21T11:31:06;37.20;69.70
2314;DHT22;42279;51.388;7.000;2023-08-21T11:33:32;36.60;72.30
2314;DHT22;42279;51.388;7.000;2023-08-21T11:36:00;36.40;75.90
2314;DHT22;42279;51.388;7.000;2023-08-21T11:38:26;36.40;73.40
2314;DHT22;42279;51.388;7.000;2023-08-21T11:41:00;36.10;73.00
2314;DHT22;42279;51.388;7.000;2023-08-21T11:43:35;36.80;74.50
2314;DHT22;42279;51.388;7.000;2023-08-21T11:46:02;36.60;73.80
2314;DHT22;42279;51.388;7.000;2023-08-21T11:48:28;36.50;75.10
2314;DHT22;42279;51.388;7.000;2023-08-21T11:50:55;36.80;78.20
2314;DHT22;42279;51.388;7.000;2023-08-21T11:53:40;37.00;73.70
2314;DHT22;42279;51.388;7.000;2023-08-21T11:56:12;37.50;73.70
2314;DHT22;42279;51.388;7.000;2023-08-21T11:58:42;37.60;73.30
2314;DHT22;42279;51.388;7.000;2023-08-21T12:01:08;37.30;73.20
2314;DHT22;42279;51.388;7.000;2023-08-21T12:03:39;37.20;73.80
2314;DHT22;42279;51.388;7.000;2023-08-21T12:08:33;36.30;79.10
2314;DHT22;42279;51.388;7.000;2023-08-21T12:10:58;35.60;81.70
2314;DHT22;42279;51.388;7.000;2023-08-21T12:13:24;35.40;81.70
2314;DHT22;42279;51.388;7.000;2023-08-21T12:15:49;35.40;82.50
2314;DHT22;42279;51.388;7.000;2023-08-21T12:18:15;35.30;82.20
2314;DHT22;42279;51.388;7.000;2023-08-21T12:20:41;34.60;83.30
2314;DHT22;42279;51.388;7.000;2023-08-21T12:23:06;33.90;84.20
2314;DHT22;42279;51.388;7.000;2023-08-21T12:25:32;34.30;83.60
2314;DHT22;42279;51.388;7.000;2023-08-21T12:27:57;35.40;83.40
2314;DHT22;42279;51.388;7.000;2023-08-21T12:30:23;35.90;81.70
2314;DHT22;42279;51.388;7.000;2023-08-21T12:32:48;36.50;78.90
2314;DHT22;42279;51.388;7.000;2023-08-21T12:35:14;37.30;79.10
2314;DHT22;42279;51.388;7.000;2023-08-21T12:37:40;37.10;78.00
2314;DHT22;42279;51.388;7.000;2023-08-21T12:40:06;36.90;79.10
2314;DHT22;42279;51.388;7.000;2023-08-21T12:42:32;36.10;80.60
2314;DHT22;42279;51.388;7.000;2023-08-21T12:44:58;35.70;81.70
2314;DHT22;42279;51.388;7.000;2023-08-21T12:52:16;33.50;84.20
2314;DHT22;42279;51.388;7.000;2023-08-21T12:54:42;33.10;84.70
2314;DHT22;42279;51.388;7.000;2023-08-21T12:57:08;33.00;85.20
2314;DHT22;42279;51.388;7.000;2023-08-21T12:59:34;32.70;85.60
2314;DHT22;42279;51.388;7.000;2023-08-21T13:02:00;32.60;85.80
2314;DHT22;42279;51.388;7.000;2023-08-21T13:04:26;33.20;85.00
2314;DHT22;42279;51.388;7.000;2023-08-21T13:06:52;34.30;83.20
2314;DHT22;42279;51.388;7.000;2023-08-21T13:09:18;35.20;81.60
2314;DHT22;42279;51.388;7.000;2023-08-21T13:14:11;38.00;81.00
2314;DHT22;42279;51.388;7.000;2023-08-21T13:19:03;38.70;60.40
2314;DHT22;42279;51.388;7.000;2023-08-21T13:21:29;38.50;60.30
2314;DHT22;42279;51.388;7.000;2023-08-21T13:23:55;38.80;61.00
2314;DHT22;42279;51.388;7.000;2023-08-21T13:26:21;39.30;59.90
2314;DHT22;42279;51.388;7.000;2023-08-21T13:28:46;39.50;59.70
2314;DHT22;42279;51.388;7.000;2023-08-21T13:31:12;39.50;59.50
2314;DHT22;42279;51.388;7.000;2023-08-21T13:33:47;39.30;59.30
2314;DHT22;42279;51.388;7.000;2023-08-21T13:36:14;39.30;59.30
2314;DHT22;42279;51.388;7.000;2023-08-21T13:38:40;39.20;59.10
2314;DHT22;42279;51.388;7.000;2023-08-21T13:41:07;39.20;58.90
2314;DHT22;42279;51.388;7.000;2023-08-21T13:43:33;39.20;59.30
2314;DHT22;42279;51.388;7.000;2023-08-21T13:46:00;38.30;59.30
2314;DHT22;42279;51.388;7.000;2023-08-21T13:48:26;37.40;61.50
2314;DHT22;42279;51.388;7.000;2023-08-21T13:50:52;36.30;62.80
2314;DHT22;42279;51.388;7.000;2023-08-21T13:53:17;35.40;64.20
2314;DHT22;42279;51.388;7.000;2023-08-21T13:55:46;34.90;66.00
2314;DHT22;42279;51.388;7.000;2023-08-21T13:58:11;35.40;66.30
2314;DHT22;42279;51.388;7.000;2023-08-21T14:00:37;35.10;66.00
2314;DHT22;42279;51.388;7.000;2023-08-21T14:03:03;34.40;67.00
2314;DHT22;42279;51.388;7.000;2023-08-21T14:05:28;34.90;67.70
2314;DHT22;42279;51.388;7.000;2023-08-21T14:08:00;35.10;67.70
2314;DHT22;42279;51.388;7.000;2023-08-21T14:10:26;35.20;67.20
2314;DHT22;42279;51.388;7.000;2023-08-21T14:12:52;34.60;68.00
2314;DHT22;42279;51.388;7.000;2023-08-21T14:15:17;35.10;67.40
2314;DHT22;42279;51.388;7.000;2023-08-21T14:17:44;35.60;66.40
2314;DHT22;42279;51.388;7.000;2023-08-21T14:20:13;36.00;65.30
2314;DHT22;42279;51.388;7.000;2023-08-21T14:22:39;36.50;64.50
2314;DHT22;42279;51.388;7.000;2023-08-21T14:25:04;36.60;63.80
2314;DHT22;42279;51.388;7.000;2023-08-21T14:27:31;36.80;63.90
2314;DHT22;42279;51.388;7.000;2023-08-21T14:29:57;37.00;62.80
2314;DHT22;42279;51.388;7.000;2023-08-21T14:32:22;37.40;62.80
2314;DHT22;42279;51.388;7.000;2023-08-21T14:34:48;36.70;63.80
2314;DHT22;42279;51.388;7.000;2023-08-21T14:37:14;36.30;65.00
2314;DHT22;42279;51.388;7.000;2023-08-21T14:39:44;35.70;65.50
2314;DHT22;42279;51.388;7.000;2023-08-21T14:42:09;35.10;66.50
2314;DHT22;42279;51.388;7.000;2023-08-21T14:44:35;34.70;67.30
2314;DHT22;42279;51.388;7.000;2023-08-21T14:47:01;34.50;68.30
2314;DHT22;42279;51.388;7.000;2023-08-21T14:49:26;34.90;66.60
2314;DHT22;42279;51.388;7.000;2023-08-21T14:51:52;35.50;65.50
2314;DHT22;42279;51.388;7.000;2023-08-21T14:54:18;36.10;65.40
2314;DHT22;42279;51.388;7.000;2023-08-21T14:56:43;36.80;65.20
2314;DHT22;42279;51.388;7.000;2023-08-21T14:59:09;37.00;65.80
2314;DHT22;42279;51.388;7.000;2023-08-21T15:01:38;36.90;65.80
2314;DHT22;42279;51.388;7.000;2023-08-21T15:04:05;36.20;66.60
2314;DHT22;42279;51.388;7.000;2023-08-21T15:06:30;35.50;67.40
2314;DHT22;42279;51.388;7.000;2023-08-21T15:08:56;34.80;67.80
2314;DHT22;42279;51.388;7.000;2023-08-21T15:11:21;34.00;68.70
2314;DHT22;42279;51.388;7.000;2023-08-21T15:13:47;33.10;73.60
2314;DHT22;42279;51.388;7.000;2023-08-21T15:16:13;32.60;75.00
2314;DHT22;42279;51.388;7.000;2023-08-21T15:18:38;32.20;76.70
2314;DHT22;42279;51.388;7.000;2023-08-21T15:21:04;31.80;76.90
2314;DHT22;42279;51.388;7.000;2023-08-21T15:23:29;31.50;78.00
2314;DHT22;42279;51.388;7.000;2023-08-21T15:25:55;31.40;77.50
2314;DHT22;42279;51.388;7.000;2023-08-21T15:28:21;30.80;78.50
2314;DHT22;42279;51.388;7.000;2023-08-21T15:30:46;30.80;79.80
2314;DHT22;42279;51.388;7.000;2023-08-21T15:33:12;30.80;79.40
2314;DHT22;42279;51.388;7.000;2023-08-21T15:35:37;30.70;79.60
2314;DHT22;42279;51.388;7.000;2023-08-21T15:38:03;30.60;80.40
2314;DHT22;42279;51.388;7.000;2023-08-21T15:40:29;30.50;80.00
2314;DHT22;42279;51.388;7.000;2023-08-21T15:42:55;30.50;80.80
2314;DHT22;42279;51.388;7.000;2023-08-21T15:45:21;30.60;81.10
2314;DHT22;42279;51.388;7.000;2023-08-21T15:47:48;30.70;80.10
2314;DHT22;42279;51.388;7.000;2023-08-21T15:50:14;30.60;80.70
2314;DHT22;42279;51.388;7.000;2023-08-21T15:52:40;30.50;81.00
2314;DHT22;42279;51.388;7.000;2023-08-21T15:55:06;30.40;81.80
2314;DHT22;42279;51.388;7.000;2023-08-21T15:57:32;30.60;81.40
2314;DHT22;42279;51.388;7.000;2023-08-21T15:59:58;30.60;80.60
2314;DHT22;42279;51.388;7.000;2023-08-21T16:02:24;30.50;81.60
2314;DHT22;42279;51.388;7.000;2023-08-21T16:04:49;30.40;82.00
2314;DHT22;42279;51.388;7.000;2023-08-21T16:07:15;30.40;81.60
2314;DHT22;42279;51.388;7.000;2023-08-21T16:09:41;30.30;82.50
2314;DHT22;42279;51.388;7.000;2023-08-21T16:12:07;30.30;83.00
2314;DHT22;42279;51.388;7.000;2023-08-21T16:14:32;30.30;83.30
2314;DHT22;42279;51.388;7.000;2023-08-21T16:16:58;30.30;83.90
2314;DHT22;42279;51.388;7.000;2023-08-21T16:19:24;30.20;84.30
2314;DHT22;42279;51.388;7.000;2023-08-21T16:21:50;30.00;84.00
2314;DHT22;42279;51.388;7.000;2023-08-21T16:24:16;29.90;83.90
2314;DHT22;42279;51.388;7.000;2023-08-21T16:26:42;29.80;84.90
2314;DHT22;42279;51.388;7.000;2023-08-21T16:29:08;29.70;85.70
2314;DHT22;42279;51.388;7.000;2023-08-21T16:31:34;29.60;85.80
2314;DHT22;42279;51.388;7.000;2023-08-21T16:33:59;29.50;86.00
2314;DHT22;42279;51.388;7.000;2023-08-21T16:36:25;29.50;86.50
2314;DHT22;42279;51.388;7.000;2023-08-21T16:38:50;29.50;86.90
2314;DHT22;42279;51.388;7.000;2023-08-21T16:41:16;29.50;85.80
2314;DHT22;42279;51.388;7.000;2023-08-21T16:43:42;29.40;86.10
2314;DHT22;42279;51.388;7.000;2023-08-21T16:46:07;29.30;87.00
2314;DHT22;42279;51.388;7.000;2023-08-21T16:48:33;29.30;87.70
2314;DHT22;42279;51.388;7.000;2023-08-21T16:50:59;29.30;87.20
2314;DHT22;42279;51.388;7.000;2023-08-21T16:53:24;29.30;87.20
2314;DHT22;42279;51.388;7.000;2023-08-21T16:55:50;29.20;87.50
2314;DHT22;42279;51.388;7.000;2023-08-21T16:58:15;29.20;87.60
2314;DHT22;42279;51.388;7.000;2023-08-21T17:00:41;29.00;89.00
2314;DHT22;42279;51.388;7.000;2023-08-21T17:03:07;28.60;89.90
2314;DHT22;42279;51.388;7.000;2023-08-21T17:05:34;28.60;90.00
2314;DHT22;42279;51.388;7.000;2023-08-21T17:08:00;28.60;90.10
2314;DHT22;42279;51.388;7.000;2023-08-21T17:10:26;28.40;90.00
2314;DHT22;42279;51.388;7.000;2023-08-21T17:12:53;28.40;90.10
2314;DHT22;42279;51.388;7.000;2023-08-21T17:15:19;28.30;90.80
2314;DHT22;42279;51.388;7.000;2023-08-21T17:17:45;28.30;91.00
2314;DHT22;42279;51.388;7.000;2023-08-21T17:20:11;28.30;91.70
2314;DHT22;42279;51.388;7.000;2023-08-21T17:22:36;28.30;91.60
2314;DHT22;42279;51.388;7.000;2023-08-21T17:25:02;28.30;91.30
2314;DHT22;42279;51.388;7.000;2023-08-21T17:27:28;28.20;92.20
2314;DHT22;42279;51.388;7.000;2023-08-21T17:29:54;28.10;92.60
2314;DHT22;42279;51.388;7.000;2023-08-21T17:32:20;28.10;93.00
2314;DHT22;42279;51.388;7.000;2023-08-21T17:34:46;28.00;94.40
2314;DHT22;42279;51.388;7.000;2023-08-21T17:37:11;28.00;94.80
2314;DHT22;42279;51.388;7.000;2023-08-21T17:39:37;27.90;95.00
2314;DHT22;42279;51.388;7.000;2023-08-21T17:42:04;27.90;96.10
2314;DHT22;42279;51.388;7.000;2023-08-21T17:44:30;27.80;96.10
2314;DHT22;42279;51.388;7.000;2023-08-21T17:46:55;27.70;97.60
2314;DHT22;42279;51.388;7.000;2023-08-21T17:49:21;27.70;97.60
2314;DHT22;42279;51.388;7.000;2023-08-21T17:51:47;27.60;97.40
2314;DHT22;42279;51.388;7.000;2023-08-21T17:54:12;27.60;97.80
2314;DHT22;42279;51.388;7.000;2023-08-21T17:56:39;27.60;98.50
2314;DHT22;42279;51.388;7.000;2023-08-21T17:59:05;27.30;99.90
2314;DHT22;42279;51.388;7.000;2023-08-21T18:01:30;27.20;99.90
2314;DHT22;42279;51.388;7.000;2023-08-21T18:03:59;27.10;99.90
2314;DHT22;42279;51.388;7.000;2023-08-21T18:06:24;26.90;99.90
2314;DHT22;42279;51.388;7.000;2023-08-21T18:08:51;26.80;99.90
2314;DHT22;42279;51.388;7.000;2023-08-21T18:11:17;26.60;99.90
2314;DHT22;42279;51.388;7.000;2023-08-21T18:13:43;26.50;99.90
2314;DHT22;42279;51.388;7.000;2023-08-21T18:16:09;26.40;99.90
2314;DHT22;42279;51.388;7.000;2023-08-21T18:18:36;26.20;99.90
2314;DHT22;42279;51.388;7.000;2023-08-21T18:21:02;26.10;99.90
2314;DHT22;42279;51.388;7.000;2023-08-21T18:23:32;25.90;99.90
2314;DHT22;42279;51.388;7.000;2023-08-21T18:25:58;25.90;99.90
2314;DHT22;42279;51.388;7.000;2023-08-21T18:28:25;25.90;99.90
2314;DHT22;42279;51.388;7.000;2023-08-21T18:30:52;25.80;99.90
2314;DHT22;42279;51.388;7.000;2023-08-21T18:33:21;25.70;99.90
2314;DHT22;42279;51.388;7.000;2023-08-21T18:35:47;25.50;99.90
2314;DHT22;42279;51.388;7.000;2023-08-21T18:38:13;25.30;99.90
2314;DHT22;42279;51.388;7.000;2023-08-21T18:40:38;25.10;99.90
2314;DHT22;42279;51.388;7.000;2023-08-21T18:43:04;24.90;99.90
2314;DHT22;42279;51.388;7.000;2023-08-21T18:45:30;24.70;99.90
2314;DHT22;42279;51.388;7.000;2023-08-21T18:47:55;24.60;99.90
2314;DHT22;42279;51.388;7.000;2023-08-21T18:50:36;24.50;99.90
2314;DHT22;42279;51.388;7.000;2023-08-21T18:53:03;24.40;99.90
2314;DHT22;42279;51.388;7.000;2023-08-21T18:55:30;24.30;99.90
2314;DHT22;42279;51.388;7.000;2023-08-21T19:00:25;23.90;99.90
